sensor_id;sensor_type;location;lat;lon;timestamp;temperature;humidity
83019;DHT22;72834;40.104;18.336;2023-11-19T00:02:21;12.20;99.90
83019;DHT22;72834;40.104;18.336;2023-11-19T00:04:48;12.20;99.90
83019;DHT22;72834;40.104;18.336;2023-11-19T00:07:14;12.20;99.90
83019;DHT22;72834;40.104;18.336;2023-11-19T00:09:40;12.20;99.90
83019;DHT22;72834;40.104;18.336;2023-11-19T00:12:07;12.20;99.90
83019;DHT22;72834;40.104;18.336;2023-11-19T00:14:33;12.20;99.90
83019;DHT22;72834;40.104;18.336;2023-11-19T00:17:03;12.20;99.90
83019;DHT22;72834;40.104;18.336;2023-11-19T00:19:32;12.20;99.90
83019;DHT22;72834;40.104;18.336;2023-11-19T00:21:58;12.20;99.90
83019;DHT22;72834;40.104;18.336;2023-11-19T00:24:29;12.20;99.90
83019;DHT22;72834;40.104;18.336;2023-11-19T00:26:55;12.20;99.90
83019;DHT22;72834;40.104;18.336;2023-11-19T00:29:22;12.10;99.90
83019;DHT22;72834;40.104;18.336;2023-11-19T00:31:48;12.10;99.90
83019;DHT22;72834;40.104;18.336;2023-11-19T00:34:15;12.10;99.90
83019;DHT22;72834;40.104;18.336;2023-11-19T00:36:41;12.20;99.90
83019;DHT22;72834;40.104;18.336;2023-11-19T00:39:07;12.10;99.90
83019;DHT22;72834;40.104;18.336;2023-11-19T00:41:33;12.10;99.90
83019;DHT22;72834;40.104;18.336;2023-11-19T00:44:00;12.10;99.90
83019;DHT22;72834;40.104;18.336;2023-11-19T00:46:26;12.10;99.90
83019;DHT22;72834;40.104;18.336;2023-11-19T00:48:53;12.10;99.90
83019;DHT22;72834;40.104;18.336;2023-11-19T00:51:20;12.10;99.90
83019;DHT22;72834;40.104;18.336;2023-11-19T00:53:47;12.10;99.90
83019;DHT22;72834;40.104;18.336;2023-11-19T00:56:13;12.10;99.90
83019;DHT22;72834;40.104;18.336;2023-11-19T00:58:40;12.10;99.90
83019;DHT22;72834;40.104;18.336;2023-11-19T01:01:06;12.10;99.90
83019;DHT22;72834;40.104;18.336;2023-11-19T01:03:33;12.10;99.90
83019;DHT22;72834;40.104;18.336;2023-11-19T01:06:00;12.10;99.90
83019;DHT22;72834;40.104;18.336;2023-11-19T01:08:28;12.10;99.90
83019;DHT22;72834;40.104;18.336;2023-11-19T01:10:55;12.00;99.90
83019;DHT22;72834;40.104;18.336;2023-11-19T01:13:21;12.10;99.90
83019;DHT22;72834;40.104;18.336;2023-11-19T01:15:48;12.00;99.90
83019;DHT22;72834;40.104;18.336;2023-11-19T01:18:14;12.10;99.90
83019;DHT22;72834;40.104;18.336;2023-11-19T01:20:41;12.00;99.90
83019;DHT22;72834;40.104;18.336;2023-11-19T01:23:07;12.00;99.90
83019;DHT22;72834;40.104;18.336;2023-11-19T01:25:33;12.00;99.90
83019;DHT22;72834;40.104;18.336;2023-11-19T01:28:01;12.00;99.90
83019;DHT22;72834;40.104;18.336;2023-11-19T01:30:29;12.00;99.90
83019;DHT22;72834;40.104;18.336;2023-11-19T01:32:56;12.00;99.90
83019;DHT22;72834;40.104;18.336;2023-11-19T01:35:23;12.00;99.90
83019;DHT22;72834;40.104;18.336;2023-11-19T01:37:49;12.00;99.90
83019;DHT22;72834;40.104;18.336;2023-11-19T01:40:20;12.00;99.90
83019;DHT22;72834;40.104;18.336;2023-11-19T01:42:47;12.00;99.90
83019;DHT22;72834;40.104;18.336;2023-11-19T01:45:27;12.00;99.90
83019;DHT22;72834;40.104;18.336;2023-11-19T01:47:55;12.00;99.90
83019;DHT22;72834;40.104;18.336;2023-11-19T01:50:23;12.00;99.90
83019;DHT22;72834;40.104;18.336;2023-11-19T01:52:54;12.00;99.90
83019;DHT22;72834;40.104;18.336;2023-11-19T01:55:21;12.00;99.90
83019;DHT22;72834;40.104;18.336;2023-11-19T01:57:49;12.00;99.90
83019;DHT22;72834;40.104;18.336;2023-11-19T02:03:06;12.00;99.90
83019;DHT22;72834;40.104;18.336;2023-11-19T02:05:35;12.00;99.90
83019;DHT22;72834;40.104;18.336;2023-11-19T02:08:02;11.90;99.90
83019;DHT22;72834;40.104;18.336;2023-11-19T02:10:29;11.90;99.90
83019;DHT22;72834;40.104;18.336;2023-11-19T02:12:58;11.90;99.90
83019;DHT22;72834;40.104;18.336;2023-11-19T02:15:25;11.90;99.90
83019;DHT22;72834;40.104;18.336;2023-11-19T02:17:51;11.90;99.90
83019;DHT22;72834;40.104;18.336;2023-11-19T02:20:18;11.90;99.90
83019;DHT22;72834;40.104;18.336;2023-11-19T02:22:49;11.80;99.90
83019;DHT22;72834;40.104;18.336;2023-11-19T02:25:28;11.90;99.90
83019;DHT22;72834;40.104;18.336;2023-11-19T02:28:01;11.80;99.90
83019;DHT22;72834;40.104;18.336;2023-11-19T02:30:27;11.80;99.90
83019;DHT22;72834;40.104;18.336;2023-11-19T02:32:59;11.80;99.90
83019;DHT22;72834;40.104;18.336;2023-11-19T02:35:28;11.90;99.90
83019;DHT22;72834;40.104;18.336;2023-11-19T02:37:58;11.90;99.90
83019;DHT22;72834;40.104;18.336;2023-11-19T02:40:25;11.90;99.90
83019;DHT22;72834;40.104;18.336;2023-11-19T02:42:53;11.80;99.90
83019;DHT22;72834;40.104;18.336;2023-11-19T02:45:20;11.90;99.90
83019;DHT22;72834;40.104;18.336;2023-11-19T02:47:48;11.80;99.90
83019;DHT22;72834;40.104;18.336;2023-11-19T02:50:14;11.80;99.90
83019;DHT22;72834;40.104;18.336;2023-11-19T02:52:42;11.80;99.90
83019;DHT22;72834;40.104;18.336;2023-11-19T02:55:12;11.80;99.90
83019;DHT22;72834;40.104;18.336;2023-11-19T02:57:39;11.80;99.90
83019;DHT22;72834;40.104;18.336;2023-11-19T03:00:15;11.70;99.90
83019;DHT22;72834;40.104;18.336;2023-11-19T03:02:42;11.70;99.90
83019;DHT22;72834;40.104;18.336;2023-11-19T03:05:26;11.70;99.90
83019;DHT22;72834;40.104;18.336;2023-11-19T03:07:52;11.70;99.90
83019;DHT22;72834;40.104;18.336;2023-11-19T03:10:19;11.70;99.90
83019;DHT22;72834;40.104;18.336;2023-11-19T03:12:45;11.70;99.90
83019;DHT22;72834;40.104;18.336;2023-11-19T03:15:12;11.70;99.90
83019;DHT22;72834;40.104;18.336;2023-11-19T03:17:44;11.70;99.90
83019;DHT22;72834;40.104;18.336;2023-11-19T03:20:12;11.70;99.90
83019;DHT22;72834;40.104;18.336;2023-11-19T03:22:44;11.70;99.90
83019;DHT22;72834;40.104;18.336;2023-11-19T03:25:10;11.70;99.90
83019;DHT22;72834;40.104;18.336;2023-11-19T03:27:40;11.70;99.90
83019;DHT22;72834;40.104;18.336;2023-11-19T03:30:10;11.60;99.90
83019;DHT22;72834;40.104;18.336;2023-11-19T03:32:37;11.70;99.90
83019;DHT22;72834;40.104;18.336;2023-11-19T03:35:05;11.60;99.90
83019;DHT22;72834;40.104;18.336;2023-11-19T03:37:33;11.60;99.90
83019;DHT22;72834;40.104;18.336;2023-11-19T03:40:00;11.60;99.90
83019;DHT22;72834;40.104;18.336;2023-11-19T03:42:28;11.50;99.90
83019;DHT22;72834;40.104;18.336;2023-11-19T03:44:56;11.60;99.90
83019;DHT22;72834;40.104;18.336;2023-11-19T03:47:23;11.60;99.90
83019;DHT22;72834;40.104;18.336;2023-11-19T03:49:50;11.60;99.90
83019;DHT22;72834;40.104;18.336;2023-11-19T03:52:17;11.50;99.90
83019;DHT22;72834;40.104;18.336;2023-11-19T03:54:44;11.60;99.90
83019;DHT22;72834;40.104;18.336;2023-11-19T03:57:12;11.60;99.90
83019;DHT22;72834;40.104;18.336;2023-11-19T03:59:39;11.50;99.90
83019;DHT22;72834;40.104;18.336;2023-11-19T04:02:06;11.50;99.90
83019;DHT22;72834;40.104;18.336;2023-11-19T04:04:32;11.50;99.90
83019;DHT22;72834;40.104;18.336;2023-11-19T04:07:00;11.40;99.90
83019;DHT22;72834;40.104;18.336;2023-11-19T04:09:27;11.40;99.90
83019;DHT22;72834;40.104;18.336;2023-11-19T04:11:53;11.30;99.90
83019;DHT22;72834;40.104;18.336;2023-11-19T04:14:19;11.40;99.90
83019;DHT22;72834;40.104;18.336;2023-11-19T04:16:45;11.40;99.90
83019;DHT22;72834;40.104;18.336;2023-11-19T04:19:12;11.40;99.90
83019;DHT22;72834;40.104;18.336;2023-11-19T04:21:42;11.30;99.90
83019;DHT22;72834;40.104;18.336;2023-11-19T04:24:09;11.30;99.90
83019;DHT22;72834;40.104;18.336;2023-11-19T04:26:41;11.10;99.90
83019;DHT22;72834;40.104;18.336;2023-11-19T04:29:14;11.00;99.90
83019;DHT22;72834;40.104;18.336;2023-11-19T04:31:43;10.90;99.90
83019;DHT22;72834;40.104;18.336;2023-11-19T04:34:10;10.80;99.90
83019;DHT22;72834;40.104;18.336;2023-11-19T04:36:37;10.90;99.90
83019;DHT22;72834;40.104;18.336;2023-11-19T04:39:04;10.90;99.90
83019;DHT22;72834;40.104;18.336;2023-11-19T04:41:50;11.00;99.90
83019;DHT22;72834;40.104;18.336;2023-11-19T04:44:20;11.00;99.90
83019;DHT22;72834;40.104;18.336;2023-11-19T04:46:46;11.00;99.90
83019;DHT22;72834;40.104;18.336;2023-11-19T04:49:13;11.10;99.90
83019;DHT22;72834;40.104;18.336;2023-11-19T04:51:41;11.10;99.90
83019;DHT22;72834;40.104;18.336;2023-11-19T04:54:08;11.00;99.90
83019;DHT22;72834;40.104;18.336;2023-11-19T04:56:35;11.00;99.90
83019;DHT22;72834;40.104;18.336;2023-11-19T04:59:04;10.90;99.90
83019;DHT22;72834;40.104;18.336;2023-11-19T05:01:35;10.80;99.90
83019;DHT22;72834;40.104;18.336;2023-11-19T05:04:01;10.70;99.90
83019;DHT22;72834;40.104;18.336;2023-11-19T05:06:29;10.70;99.90
83019;DHT22;72834;40.104;18.336;2023-11-19T05:08:59;10.50;99.90
83019;DHT22;72834;40.104;18.336;2023-11-19T05:11:34;10.50;99.90
83019;DHT22;72834;40.104;18.336;2023-11-19T05:14:02;10.50;99.90
83019;DHT22;72834;40.104;18.336;2023-11-19T05:16:31;10.50;99.90
83019;DHT22;72834;40.104;18.336;2023-11-19T05:18:58;10.50;99.90
83019;DHT22;72834;40.104;18.336;2023-11-19T05:21:24;10.50;99.90
83019;DHT22;72834;40.104;18.336;2023-11-19T05:23:50;10.50;99.90
83019;DHT22;72834;40.104;18.336;2023-11-19T05:26:20;10.40;99.90
83019;DHT22;72834;40.104;18.336;2023-11-19T05:28:47;10.40;99.90
83019;DHT22;72834;40.104;18.336;2023-11-19T05:31:14;10.50;99.90
83019;DHT22;72834;40.104;18.336;2023-11-19T05:33:40;10.60;99.90
83019;DHT22;72834;40.104;18.336;2023-11-19T05:36:07;10.60;99.90
83019;DHT22;72834;40.104;18.336;2023-11-19T05:38:36;10.60;99.90
83019;DHT22;72834;40.104;18.336;2023-11-19T05:41:03;10.60;99.90
83019;DHT22;72834;40.104;18.336;2023-11-19T05:43:31;10.60;99.90
83019;DHT22;72834;40.104;18.336;2023-11-19T05:45:57;10.50;99.90
83019;DHT22;72834;40.104;18.336;2023-11-19T05:48:26;10.50;99.90
83019;DHT22;72834;40.104;18.336;2023-11-19T05:50:52;10.50;99.90
83019;DHT22;72834;40.104;18.336;2023-11-19T05:53:19;10.50;99.90
83019;DHT22;72834;40.104;18.336;2023-11-19T05:55:45;10.40;99.90
83019;DHT22;72834;40.104;18.336;2023-11-19T05:58:15;10.30;99.90
83019;DHT22;72834;40.104;18.336;2023-11-19T06:00:42;10.20;99.90
83019;DHT22;72834;40.104;18.336;2023-11-19T06:03:09;10.20;99.90
83019;DHT22;72834;40.104;18.336;2023-11-19T06:05:35;10.20;99.90
83019;DHT22;72834;40.104;18.336;2023-11-19T06:08:01;10.10;99.90
83019;DHT22;72834;40.104;18.336;2023-11-19T06:10:27;10.10;99.90
83019;DHT22;72834;40.104;18.336;2023-11-19T06:13:00;10.10;99.90
83019;DHT22;72834;40.104;18.336;2023-11-19T06:15:26;10.30;99.90
83019;DHT22;72834;40.104;18.336;2023-11-19T06:17:54;10.30;99.90
83019;DHT22;72834;40.104;18.336;2023-11-19T06:20:26;10.40;99.90
83019;DHT22;72834;40.104;18.336;2023-11-19T06:22:56;10.50;99.90
83019;DHT22;72834;40.104;18.336;2023-11-19T06:25:23;10.50;99.90
83019;DHT22;72834;40.104;18.336;2023-11-19T06:27:53;10.60;99.90
83019;DHT22;72834;40.104;18.336;2023-11-19T06:30:19;10.60;99.90
83019;DHT22;72834;40.104;18.336;2023-11-19T06:32:46;10.60;99.90
83019;DHT22;72834;40.104;18.336;2023-11-19T06:35:13;10.60;99.90
83019;DHT22;72834;40.104;18.336;2023-11-19T06:37:40;10.70;99.90
83019;DHT22;72834;40.104;18.336;2023-11-19T06:40:07;10.60;99.90
83019;DHT22;72834;40.104;18.336;2023-11-19T06:42:36;10.70;99.90
83019;DHT22;72834;40.104;18.336;2023-11-19T06:45:02;10.70;99.90
83019;DHT22;72834;40.104;18.336;2023-11-19T06:47:30;10.80;99.90
83019;DHT22;72834;40.104;18.336;2023-11-19T06:49:56;10.80;99.90
83019;DHT22;72834;40.104;18.336;2023-11-19T06:52:23;10.80;99.90
83019;DHT22;72834;40.104;18.336;2023-11-19T06:54:50;10.90;99.90
83019;DHT22;72834;40.104;18.336;2023-11-19T06:57:16;10.90;99.90
83019;DHT22;72834;40.104;18.336;2023-11-19T06:59:43;11.00;99.90
83019;DHT22;72834;40.104;18.336;2023-11-19T07:02:09;11.00;99.90
83019;DHT22;72834;40.104;18.336;2023-11-19T07:04:35;11.10;99.90
83019;DHT22;72834;40.104;18.336;2023-11-19T07:07:01;11.10;99.90
83019;DHT22;72834;40.104;18.336;2023-11-19T07:09:28;11.10;99.90
83019;DHT22;72834;40.104;18.336;2023-11-19T07:11:54;11.20;99.90
83019;DHT22;72834;40.104;18.336;2023-11-19T07:14:21;11.20;99.90
83019;DHT22;72834;40.104;18.336;2023-11-19T07:16:49;11.30;99.90
83019;DHT22;72834;40.104;18.336;2023-11-19T07:19:16;11.30;99.90
83019;DHT22;72834;40.104;18.336;2023-11-19T07:21:42;11.40;99.90
83019;DHT22;72834;40.104;18.336;2023-11-19T07:24:10;11.40;99.90
83019;DHT22;72834;40.104;18.336;2023-11-19T07:26:46;11.50;99.90
83019;DHT22;72834;40.104;18.336;2023-11-19T07:29:15;11.60;99.90
83019;DHT22;72834;40.104;18.336;2023-11-19T07:31:45;11.60;99.90
83019;DHT22;72834;40.104;18.336;2023-11-19T07:34:11;11.60;99.90
83019;DHT22;72834;40.104;18.336;2023-11-19T07:36:38;11.70;99.90
83019;DHT22;72834;40.104;18.336;2023-11-19T07:39:04;11.80;99.90
83019;DHT22;72834;40.104;18.336;2023-11-19T07:41:31;11.80;99.90
83019;DHT22;72834;40.104;18.336;2023-11-19T07:43:57;11.80;99.90
83019;DHT22;72834;40.104;18.336;2023-11-19T07:46:24;11.90;99.90
83019;DHT22;72834;40.104;18.336;2023-11-19T07:48:52;11.90;99.90
83019;DHT22;72834;40.104;18.336;2023-11-19T07:51:19;12.00;99.90
83019;DHT22;72834;40.104;18.336;2023-11-19T07:53:45;12.00;99.90
83019;DHT22;72834;40.104;18.336;2023-11-19T07:56:11;12.10;99.90
83019;DHT22;72834;40.104;18.336;2023-11-19T07:58:37;12.10;99.90
83019;DHT22;72834;40.104;18.336;2023-11-19T08:01:05;12.20;99.90
83019;DHT22;72834;40.104;18.336;2023-11-19T08:03:31;12.20;99.90
83019;DHT22;72834;40.104;18.336;2023-11-19T08:06:00;12.30;99.90
83019;DHT22;72834;40.104;18.336;2023-11-19T08:08:27;12.30;99.90
83019;DHT22;72834;40.104;18.336;2023-11-19T08:10:56;12.40;99.90
83019;DHT22;72834;40.104;18.336;2023-11-19T08:13:25;12.40;99.90
83019;DHT22;72834;40.104;18.336;2023-11-19T08:15:51;12.40;99.90
83019;DHT22;72834;40.104;18.336;2023-11-19T08:18:18;12.50;99.90
83019;DHT22;72834;40.104;18.336;2023-11-19T08:20:45;12.50;99.90
83019;DHT22;72834;40.104;18.336;2023-11-19T08:23:13;12.60;99.90
83019;DHT22;72834;40.104;18.336;2023-11-19T08:25:40;12.60;99.90
83019;DHT22;72834;40.104;18.336;2023-11-19T08:28:06;12.70;99.90
83019;DHT22;72834;40.104;18.336;2023-11-19T08:30:32;12.70;99.90
83019;DHT22;72834;40.104;18.336;2023-11-19T08:32:59;12.70;99.90
83019;DHT22;72834;40.104;18.336;2023-11-19T08:35:29;12.80;99.90
83019;DHT22;72834;40.104;18.336;2023-11-19T08:37:56;12.90;99.90
83019;DHT22;72834;40.104;18.336;2023-11-19T08:40:23;12.90;99.90
83019;DHT22;72834;40.104;18.336;2023-11-19T08:42:49;12.90;99.90
83019;DHT22;72834;40.104;18.336;2023-11-19T08:45:15;12.90;99.90
83019;DHT22;72834;40.104;18.336;2023-11-19T08:47:41;13.00;99.90
83019;DHT22;72834;40.104;18.336;2023-11-19T08:50:08;13.10;99.90
83019;DHT22;72834;40.104;18.336;2023-11-19T08:52:35;13.10;99.90
83019;DHT22;72834;40.104;18.336;2023-11-19T08:55:01;13.20;99.90
83019;DHT22;72834;40.104;18.336;2023-11-19T08:57:28;13.20;99.90
83019;DHT22;72834;40.104;18.336;2023-11-19T08:59:55;13.30;99.90
83019;DHT22;72834;40.104;18.336;2023-11-19T09:02:21;13.30;99.90
83019;DHT22;72834;40.104;18.336;2023-11-19T09:04:47;13.40;99.90
83019;DHT22;72834;40.104;18.336;2023-11-19T09:07:13;13.40;99.90
83019;DHT22;72834;40.104;18.336;2023-11-19T09:09:40;13.50;99.90
83019;DHT22;72834;40.104;18.336;2023-11-19T09:12:06;13.60;99.90
83019;DHT22;72834;40.104;18.336;2023-11-19T09:14:33;13.70;99.90
83019;DHT22;72834;40.104;18.336;2023-11-19T09:16:59;13.70;99.90
83019;DHT22;72834;40.104;18.336;2023-11-19T09:19:26;13.80;99.90
83019;DHT22;72834;40.104;18.336;2023-11-19T09:21:53;13.80;99.90
83019;DHT22;72834;40.104;18.336;2023-11-19T09:24:19;13.80;99.90
83019;DHT22;72834;40.104;18.336;2023-11-19T09:26:46;13.90;99.90
83019;DHT22;72834;40.104;18.336;2023-11-19T09:29:12;13.90;99.90
83019;DHT22;72834;40.104;18.336;2023-11-19T09:31:40;13.90;99.90
83019;DHT22;72834;40.104;18.336;2023-11-19T09:34:06;14.00;99.90
83019;DHT22;72834;40.104;18.336;2023-11-19T09:36:33;14.00;99.90
83019;DHT22;72834;40.104;18.336;2023-11-19T09:39:00;14.10;99.90
83019;DHT22;72834;40.104;18.336;2023-11-19T09:41:27;14.10;99.90
83019;DHT22;72834;40.104;18.336;2023-11-19T09:43:55;14.20;99.90
83019;DHT22;72834;40.104;18.336;2023-11-19T09:46:22;14.20;99.90
83019;DHT22;72834;40.104;18.336;2023-11-19T09:48:53;14.30;99.90
83019;DHT22;72834;40.104;18.336;2023-11-19T09:51:22;14.40;99.90
83019;DHT22;72834;40.104;18.336;2023-11-19T09:53:49;14.40;99.90
83019;DHT22;72834;40.104;18.336;2023-11-19T09:56:16;14.50;99.90
83019;DHT22;72834;40.104;18.336;2023-11-19T09:58:44;14.50;99.90
83019;DHT22;72834;40.104;18.336;2023-11-19T10:01:11;14.60;99.90
83019;DHT22;72834;40.104;18.336;2023-11-19T10:03:39;14.60;99.90
83019;DHT22;72834;40.104;18.336;2023-11-19T10:06:07;14.70;99.90
83019;DHT22;72834;40.104;18.336;2023-11-19T10:08:37;14.70;99.90
83019;DHT22;72834;40.104;18.336;2023-11-19T10:11:06;14.80;99.90
83019;DHT22;72834;40.104;18.336;2023-11-19T10:13:35;14.80;99.90
83019;DHT22;72834;40.104;18.336;2023-11-19T10:16:11;14.90;99.90
83019;DHT22;72834;40.104;18.336;2023-11-19T10:18:45;14.90;99.90
83019;DHT22;72834;40.104;18.336;2023-11-19T10:21:14;15.00;99.90
83019;DHT22;72834;40.104;18.336;2023-11-19T10:23:51;15.00;99.90
83019;DHT22;72834;40.104;18.336;2023-11-19T10:26:18;15.10;99.90
83019;DHT22;72834;40.104;18.336;2023-11-19T10:28:47;15.10;99.90
83019;DHT22;72834;40.104;18.336;2023-11-19T10:31:14;15.20;99.90
83019;DHT22;72834;40.104;18.336;2023-11-19T10:33:41;15.30;99.90
83019;DHT22;72834;40.104;18.336;2023-11-19T10:36:08;15.30;99.90
83019;DHT22;72834;40.104;18.336;2023-11-19T10:38:34;15.40;99.90
83019;DHT22;72834;40.104;18.336;2023-11-19T10:41:01;15.40;99.90
83019;DHT22;72834;40.104;18.336;2023-11-19T10:43:27;15.40;99.90
83019;DHT22;72834;40.104;18.336;2023-11-19T10:45:53;15.40;99.90
83019;DHT22;72834;40.104;18.336;2023-11-19T10:48:19;15.40;99.90
83019;DHT22;72834;40.104;18.336;2023-11-19T10:50:53;15.40;99.90
83019;DHT22;72834;40.104;18.336;2023-11-19T10:53:21;15.40;99.90
83019;DHT22;72834;40.104;18.336;2023-11-19T10:55:50;15.50;99.90
83019;DHT22;72834;40.104;18.336;2023-11-19T10:58:16;15.50;99.90
83019;DHT22;72834;40.104;18.336;2023-11-19T11:00:57;15.50;99.90
83019;DHT22;72834;40.104;18.336;2023-11-19T11:03:31;15.50;99.90
83019;DHT22;72834;40.104;18.336;2023-11-19T11:06:03;15.50;99.90
83019;DHT22;72834;40.104;18.336;2023-11-19T11:08:30;15.60;99.90
83019;DHT22;72834;40.104;18.336;2023-11-19T11:10:57;15.60;99.90
83019;DHT22;72834;40.104;18.336;2023-11-19T11:13:25;15.70;99.90
83019;DHT22;72834;40.104;18.336;2023-11-19T11:15:55;15.70;99.90
83019;DHT22;72834;40.104;18.336;2023-11-19T11:18:24;15.60;99.90
83019;DHT22;72834;40.104;18.336;2023-11-19T11:21:02;15.60;99.90
83019;DHT22;72834;40.104;18.336;2023-11-19T11:24:01;15.60;99.90
83019;DHT22;72834;40.104;18.336;2023-11-19T11:36:28;15.50;99.90
83019;DHT22;72834;40.104;18.336;2023-11-19T11:38:23;15.60;99.90
83019;DHT22;72834;40.104;18.336;2023-11-19T11:41:17;15.50;99.90
83019;DHT22;72834;40.104;18.336;2023-11-19T11:43:48;15.50;99.90
83019;DHT22;72834;40.104;18.336;2023-11-19T11:49:06;15.50;99.90
83019;DHT22;72834;40.104;18.336;2023-11-19T11:51:59;15.50;99.90
83019;DHT22;72834;40.104;18.336;2023-11-19T11:54:27;15.50;99.90
83019;DHT22;72834;40.104;18.336;2023-11-19T12:02:09;15.50;99.90
83019;DHT22;72834;40.104;18.336;2023-11-19T12:04:36;15.50;99.90
83019;DHT22;72834;40.104;18.336;2023-11-19T12:07:07;15.50;99.90
83019;DHT22;72834;40.104;18.336;2023-11-19T12:09:34;15.50;99.90
83019;DHT22;72834;40.104;18.336;2023-11-19T12:12:20;15.50;99.90
83019;DHT22;72834;40.104;18.336;2023-11-19T12:20:01;15.40;99.90
83019;DHT22;72834;40.104;18.336;2023-11-19T12:22:28;15.40;99.90
83019;DHT22;72834;40.104;18.336;2023-11-19T12:24:54;15.50;99.90
83019;DHT22;72834;40.104;18.336;2023-11-19T12:27:21;15.50;99.90
83019;DHT22;72834;40.104;18.336;2023-11-19T12:29:52;15.50;99.90
83019;DHT22;72834;40.104;18.336;2023-11-19T12:32:18;15.50;99.90
83019;DHT22;72834;40.104;18.336;2023-11-19T12:34:45;15.50;99.90
83019;DHT22;72834;40.104;18.336;2023-11-19T12:37:12;15.50;99.90
83019;DHT22;72834;40.104;18.336;2023-11-19T12:39:38;15.50;99.90
83019;DHT22;72834;40.104;18.336;2023-11-19T12:42:04;15.40;99.90
83019;DHT22;72834;40.104;18.336;2023-11-19T12:44:31;15.40;99.90
83019;DHT22;72834;40.104;18.336;2023-11-19T12:47:04;15.40;99.90
83019;DHT22;72834;40.104;18.336;2023-11-19T12:49:35;15.40;99.90
83019;DHT22;72834;40.104;18.336;2023-11-19T12:52:01;15.40;99.90
83019;DHT22;72834;40.104;18.336;2023-11-19T12:54:36;15.40;99.90
83019;DHT22;72834;40.104;18.336;2023-11-19T12:57:04;15.40;99.90
83019;DHT22;72834;40.104;18.336;2023-11-19T12:59:31;15.40;99.90
83019;DHT22;72834;40.104;18.336;2023-11-19T13:01:58;15.40;99.90
83019;DHT22;72834;40.104;18.336;2023-11-19T13:04:28;15.40;99.90
83019;DHT22;72834;40.104;18.336;2023-11-19T13:06:57;15.40;99.90
83019;DHT22;72834;40.104;18.336;2023-11-19T13:09:27;15.40;99.90
83019;DHT22;72834;40.104;18.336;2023-11-19T13:11:55;15.30;99.90
83019;DHT22;72834;40.104;18.336;2023-11-19T13:14:36;15.30;99.90
83019;DHT22;72834;40.104;18.336;2023-11-19T13:17:04;15.30;99.90
83019;DHT22;72834;40.104;18.336;2023-11-19T13:19:31;15.30;99.90
83019;DHT22;72834;40.104;18.336;2023-11-19T13:21:58;15.30;99.90
83019;DHT22;72834;40.104;18.336;2023-11-19T13:24:24;15.30;99.90
83019;DHT22;72834;40.104;18.336;2023-11-19T13:26:51;15.30;99.90
83019;DHT22;72834;40.104;18.336;2023-11-19T13:29:17;15.30;99.90
83019;DHT22;72834;40.104;18.336;2023-11-19T13:31:44;15.30;99.90
83019;DHT22;72834;40.104;18.336;2023-11-19T13:34:10;15.30;99.90
83019;DHT22;72834;40.104;18.336;2023-11-19T13:36:36;15.30;99.90
83019;DHT22;72834;40.104;18.336;2023-11-19T13:39:03;15.30;99.90
83019;DHT22;72834;40.104;18.336;2023-11-19T13:41:29;15.30;99.90
83019;DHT22;72834;40.104;18.336;2023-11-19T13:43:56;15.30;99.90
83019;DHT22;72834;40.104;18.336;2023-11-19T13:46:22;15.30;99.90
83019;DHT22;72834;40.104;18.336;2023-11-19T13:48:48;15.30;99.90
83019;DHT22;72834;40.104;18.336;2023-11-19T13:51:15;15.30;99.90
83019;DHT22;72834;40.104;18.336;2023-11-19T13:53:41;15.30;99.90
83019;DHT22;72834;40.104;18.336;2023-11-19T13:56:09;15.30;99.90
83019;DHT22;72834;40.104;18.336;2023-11-19T13:58:36;15.30;99.90
83019;DHT22;72834;40.104;18.336;2023-11-19T14:01:03;15.30;99.90
83019;DHT22;72834;40.104;18.336;2023-11-19T14:03:29;15.20;99.90
83019;DHT22;72834;40.104;18.336;2023-11-19T14:05:55;15.20;99.90
83019;DHT22;72834;40.104;18.336;2023-11-19T14:08:24;15.20;99.90
83019;DHT22;72834;40.104;18.336;2023-11-19T14:10:50;15.20;99.90
83019;DHT22;72834;40.104;18.336;2023-11-19T14:13:16;15.20;99.90
83019;DHT22;72834;40.104;18.336;2023-11-19T14:15:43;15.20;99.90
83019;DHT22;72834;40.104;18.336;2023-11-19T14:18:09;15.20;99.90
83019;DHT22;72834;40.104;18.336;2023-11-19T14:20:35;15.10;99.90
83019;DHT22;72834;40.104;18.336;2023-11-19T14:23:03;15.10;99.90
83019;DHT22;72834;40.104;18.336;2023-11-19T14:25:29;15.10;99.90
83019;DHT22;72834;40.104;18.336;2023-11-19T14:27:56;15.10;99.90
83019;DHT22;72834;40.104;18.336;2023-11-19T14:30:22;15.10;99.90
83019;DHT22;72834;40.104;18.336;2023-11-19T14:32:48;15.10;99.90
83019;DHT22;72834;40.104;18.336;2023-11-19T14:35:15;15.00;99.90
83019;DHT22;72834;40.104;18.336;2023-11-19T14:37:42;15.00;99.90
83019;DHT22;72834;40.104;18.336;2023-11-19T14:40:08;15.00;99.90
83019;DHT22;72834;40.104;18.336;2023-11-19T14:42:37;14.90;99.90
83019;DHT22;72834;40.104;18.336;2023-11-19T14:45:06;14.90;99.90
83019;DHT22;72834;40.104;18.336;2023-11-19T14:47:32;14.90;99.90
83019;DHT22;72834;40.104;18.336;2023-11-19T14:49:59;14.80;99.90
83019;DHT22;72834;40.104;18.336;2023-11-19T14:52:25;14.80;99.90
83019;DHT22;72834;40.104;18.336;2023-11-19T14:54:52;14.80;99.90
83019;DHT22;72834;40.104;18.336;2023-11-19T14:57:20;14.70;99.90
83019;DHT22;72834;40.104;18.336;2023-11-19T14:59:46;14.70;99.90
83019;DHT22;72834;40.104;18.336;2023-11-19T15:02:13;14.70;99.90
83019;DHT22;72834;40.104;18.336;2023-11-19T15:04:39;14.70;99.90
83019;DHT22;72834;40.104;18.336;2023-11-19T15:07:07;14.60;99.90
83019;DHT22;72834;40.104;18.336;2023-11-19T15:09:33;14.60;99.90
83019;DHT22;72834;40.104;18.336;2023-11-19T15:12:03;14.60;99.90
83019;DHT22;72834;40.104;18.336;2023-11-19T15:14:30;14.50;99.90
83019;DHT22;72834;40.104;18.336;2023-11-19T15:16:56;14.50;99.90
83019;DHT22;72834;40.104;18.336;2023-11-19T15:19:24;14.50;99.90
83019;DHT22;72834;40.104;18.336;2023-11-19T15:21:50;14.50;99.90
83019;DHT22;72834;40.104;18.336;2023-11-19T15:24:17;14.40;99.90
83019;DHT22;72834;40.104;18.336;2023-11-19T15:26:43;14.40;99.90
83019;DHT22;72834;40.104;18.336;2023-11-19T15:29:09;14.40;99.90
83019;DHT22;72834;40.104;18.336;2023-11-19T15:31:35;14.40;99.90
83019;DHT22;72834;40.104;18.336;2023-11-19T15:34:02;14.40;99.90
83019;DHT22;72834;40.104;18.336;2023-11-19T15:36:28;14.30;99.90
83019;DHT22;72834;40.104;18.336;2023-11-19T15:38:54;14.30;99.90
83019;DHT22;72834;40.104;18.336;2023-11-19T15:41:21;14.30;99.90
83019;DHT22;72834;40.104;18.336;2023-11-19T15:43:47;14.20;99.90
83019;DHT22;72834;40.104;18.336;2023-11-19T15:46:13;14.20;99.90